createdAt,value
2022-08-22T00:01:37.447Z,19.12
2022-08-22T00:02:44.176Z,20.99
2022-08-22T00:02:46.133Z,22.13
2022-08-22T00:04:14.188Z,19.25
2022-08-22T00:06:52.273Z,19.29
2022-08-22T00:09:29.644Z,19.20
2022-08-22T00:12:13.358Z,19.26
2022-08-22T00:14:46.057Z,19.30
2022-08-22T00:17:27.914Z,19.35
2022-08-22T00:20:03.606Z,19.36
2022-08-22T00:22:39.028Z,19.39
2022-08-22T00:25:26.075Z,19.45
2022-08-22T00:28:00.520Z,19.47
2022-08-22T00:30:30.333Z,19.38
2022-08-22T00:33:02.454Z,19.32
2022-08-22T00:35:36.467Z,19.24
2022-08-22T00:38:10.282Z,19.17
2022-08-22T00:40:53.651Z,19.06
2022-08-22T00:43:50.968Z,18.94
2022-08-22T00:46:29.937Z,18.93
2022-08-22T00:49:31.452Z,19.04
2022-08-22T00:52:32.677Z,18.97
2022-08-22T00:55:13.620Z,19.00
2022-08-22T00:58:07.673Z,18.98
2022-08-22T01:00:42.613Z,18.87
2022-08-22T01:03:33.965Z,18.80
2022-08-22T01:06:20.091Z,18.78
2022-08-22T01:09:00.706Z,18.76
2022-08-22T01:12:05.484Z,18.69
2022-08-22T01:14:47.812Z,18.56
2022-08-22T01:17:39.067Z,18.45
2022-08-22T01:20:33.357Z,18.38
2022-08-22T01:23:33.634Z,18.37
2022-08-22T01:26:37.584Z,18.44
2022-08-22T01:29:43.748Z,18.43
2022-08-22T01:32:50.383Z,18.29
2022-08-22T01:35:56.590Z,18.17
2022-08-22T01:38:44.012Z,18.03
2022-08-22T01:41:37.945Z,17.99
2022-08-22T01:44:23.411Z,17.92
2022-08-22T01:46:58.454Z,17.84
2022-08-22T01:49:35.386Z,17.78
2022-08-22T01:52:11.216Z,17.82
2022-08-22T01:54:49.138Z,17.90
2022-08-22T01:57:17.209Z,17.80
2022-08-22T01:59:48.258Z,17.69
2022-08-22T02:02:33.544Z,17.58
2022-08-22T02:05:05.752Z,17.50
2022-08-22T02:07:45.081Z,17.46
2022-08-22T02:10:19.422Z,17.35
2022-08-22T02:12:56.913Z,17.15
2022-08-22T02:15:33.348Z,17.24
2022-08-22T02:18:13.318Z,17.19
2022-08-22T02:20:54.259Z,16.79
2022-08-22T02:23:29.519Z,16.78
2022-08-22T02:26:09.601Z,16.75
2022-08-22T02:28:57.286Z,16.80
2022-08-22T02:31:36.768Z,16.87
2022-08-22T02:34:19.452Z,16.96
2022-08-22T02:36:53.950Z,16.97
2022-08-22T02:39:34.970Z,16.96
2022-08-22T02:42:13.929Z,16.92
2022-08-22T02:44:49.113Z,16.92
2022-08-22T02:47:27.963Z,17.01
2022-08-22T02:50:03.206Z,16.98
2022-08-22T02:52:41.376Z,16.64
2022-08-22T02:55:19.969Z,16.42
2022-08-22T02:57:57.356Z,16.66
2022-08-22T03:00:32.515Z,16.78
2022-08-22T03:03:16.299Z,16.79
2022-08-22T03:05:51.349Z,16.70
2022-08-22T03:08:24.132Z,16.64
2022-08-22T03:11:03.157Z,16.54
2022-08-22T03:13:40.577Z,16.46
2022-08-22T03:16:16.442Z,16.41
2022-08-22T03:18:53.687Z,16.42
2022-08-22T03:21:41.267Z,16.36
2022-08-22T03:24:12.855Z,16.27
2022-08-22T03:26:46.066Z,16.27
2022-08-22T03:29:20.157Z,16.23
2022-08-22T03:32:10.609Z,16.15
2022-08-22T03:34:38.652Z,16.10
2022-08-22T03:37:20.403Z,16.07
2022-08-22T03:39:52.788Z,15.94
2022-08-22T03:42:45.343Z,15.66
2022-08-22T03:45:40.874Z,15.85
2022-08-22T03:48:33.004Z,15.89
2022-08-22T03:51:29.825Z,15.90
2022-08-22T03:54:31.665Z,15.85
2022-08-22T03:57:38.523Z,15.84
2022-08-22T04:00:24.887Z,15.77
2022-08-22T04:03:11.955Z,15.71
2022-08-22T04:06:17.293Z,15.59
2022-08-22T04:09:20.798Z,15.58
2022-08-22T04:12:08.875Z,15.53
2022-08-22T04:15:08.302Z,15.50
2022-08-22T04:18:01.249Z,15.37
2022-08-22T04:21:07.825Z,15.41
2022-08-22T04:23:58.475Z,15.39
2022-08-22T04:26:33.319Z,15.40
2022-08-22T04:29:05.760Z,15.44
2022-08-22T04:31:39.636Z,15.48
2022-08-22T04:34:15.353Z,15.44
2022-08-22T04:36:48.196Z,15.38
2022-08-22T04:39:19.897Z,15.35
2022-08-22T04:42:06.944Z,15.25
2022-08-22T04:44:49.239Z,15.35
2022-08-22T04:47:28.296Z,15.39
2022-08-22T04:50:01.343Z,15.40
2022-08-22T04:55:32.579Z,15.39
2022-08-22T04:58:09.694Z,15.40
2022-08-22T05:00:40.833Z,15.41
2022-08-22T05:03:12.321Z,15.46
2022-08-22T05:05:41.602Z,15.52
2022-08-22T05:08:13.554Z,15.57
2022-08-22T05:10:47.024Z,15.50
2022-08-22T05:13:19.633Z,15.39
2022-08-22T05:15:51.746Z,15.58
2022-08-22T05:18:24.078Z,15.67
2022-08-22T05:21:01.592Z,15.71
2022-08-22T05:23:34.144Z,15.81
2022-08-22T05:26:06.149Z,16.02
2022-08-22T05:28:35.974Z,16.23
2022-08-22T05:31:06.023Z,16.93
2022-08-22T05:33:38.026Z,17.57
2022-08-22T05:36:10.174Z,17.84
2022-08-22T05:38:42.513Z,17.59
2022-08-22T05:41:19.037Z,18.06
2022-08-22T05:43:48.757Z,18.34
2022-08-22T05:46:20.729Z,18.54
2022-08-22T05:48:57.449Z,18.79
2022-08-22T05:51:29.765Z,19.06
2022-08-22T05:54:08.249Z,19.44
2022-08-22T05:56:41.586Z,19.73
2022-08-22T05:59:23.205Z,20.06
2022-08-22T06:01:59.847Z,20.35
2022-08-22T06:04:35.854Z,20.75
2022-08-22T06:07:08.073Z,21.15
2022-08-22T06:10:00.545Z,21.56
2022-08-22T06:12:35.018Z,21.96
2022-08-22T06:15:12.015Z,22.21
2022-08-22T06:17:42.999Z,22.47
2022-08-22T06:20:16.234Z,22.78
2022-08-22T06:22:51.526Z,23.23
2022-08-22T06:25:24.674Z,23.68
2022-08-22T06:27:54.302Z,23.92
2022-08-22T06:30:21.998Z,24.18
2022-08-22T06:32:58.826Z,24.55
2022-08-22T06:35:50.628Z,25.06
2022-08-22T06:38:19.580Z,25.57
2022-08-22T06:40:47.130Z,26.10
2022-08-22T06:43:16.395Z,26.46
2022-08-22T06:45:43.587Z,26.61
2022-08-22T06:48:18.099Z,26.65
2022-08-22T06:50:50.640Z,26.79
2022-08-22T06:53:23.131Z,26.11
2022-08-22T06:55:54.586Z,26.72
2022-08-22T06:58:27.019Z,27.18
2022-08-22T07:01:12.010Z,27.50
2022-08-22T07:03:43.463Z,27.67
2022-08-22T07:06:15.131Z,27.67
2022-08-22T07:08:42.325Z,27.34
2022-08-22T07:11:15.517Z,27.28
2022-08-22T07:13:55.242Z,27.34
2022-08-22T07:16:29.945Z,27.49
2022-08-22T07:18:57.483Z,27.45
2022-08-22T07:21:28.181Z,27.12
2022-08-22T07:23:57.152Z,26.93
2022-08-22T07:26:32.006Z,26.79
2022-08-22T07:29:11.301Z,26.86
2022-08-22T07:31:47.961Z,26.67
2022-08-22T07:34:37.631Z,26.49
2022-08-22T07:37:10.442Z,26.63
2022-08-22T07:39:43.963Z,26.45
2022-08-22T07:42:14.535Z,26.30
2022-08-22T07:44:58.501Z,26.19
2022-08-22T07:47:35.897Z,26.25
2022-08-22T07:50:08.402Z,26.40
2022-08-22T07:52:41.711Z,26.49
2022-08-22T07:55:17.307Z,26.48
2022-08-22T07:57:48.417Z,26.80
2022-08-22T08:00:19.874Z,26.73
2022-08-22T08:02:49.564Z,26.88
2022-08-22T08:05:18.296Z,26.97
2022-08-22T08:07:47.358Z,26.93
2022-08-22T08:10:19.997Z,26.82
2022-08-22T08:12:54.123Z,26.95
2022-08-22T08:15:34.321Z,27.01
2022-08-22T08:18:05.593Z,26.68
2022-08-22T08:20:35.525Z,26.36
2022-08-22T08:23:03.645Z,26.32
2022-08-22T08:25:48.545Z,26.82
2022-08-22T08:28:36.174Z,27.22
2022-08-22T08:31:09.978Z,27.18
2022-08-22T08:33:41.019Z,27.12
2022-08-22T08:36:23.481Z,27.13
2022-08-22T08:39:01.614Z,27.27
2022-08-22T08:41:50.562Z,27.24
2022-08-22T08:44:35.783Z,27.25
2022-08-22T08:47:27.275Z,27.39
2022-08-22T08:50:13.774Z,27.58
2022-08-22T08:53:00.961Z,27.65
2022-08-22T08:55:41.490Z,27.58
2022-08-22T08:58:24.573Z,27.50
2022-08-22T09:00:59.325Z,27.78
2022-08-22T09:04:04.541Z,27.91
2022-08-22T09:06:56.814Z,27.79
2022-08-22T09:09:42.722Z,27.74
2022-08-22T09:12:54.307Z,27.94
2022-08-22T09:15:58.592Z,28.28
2022-08-22T09:18:51.139Z,28.56
2022-08-22T09:21:40.779Z,28.65
2022-08-22T09:24:29.452Z,28.61
2022-08-22T09:27:01.267Z,28.50
2022-08-22T09:29:54.755Z,28.38
2022-08-22T09:32:38.306Z,28.32
2022-08-22T09:35:18.715Z,28.37
2022-08-22T09:38:01.279Z,28.82
2022-08-22T09:40:37.117Z,28.87
2022-08-22T09:43:07.189Z,28.91
2022-08-22T09:45:45.384Z,29.13
2022-08-22T09:48:43.526Z,29.28
2022-08-22T09:51:31.450Z,29.30
2022-08-22T09:54:20.217Z,29.44
2022-08-22T09:56:58.472Z,29.71
2022-08-22T09:59:41.208Z,29.37
2022-08-22T10:02:25.662Z,29.37
2022-08-22T10:05:04.162Z,29.42
2022-08-22T10:08:11.454Z,29.36
2022-08-22T10:10:55.301Z,29.52
2022-08-22T10:13:36.464Z,29.28
2022-08-22T10:16:19.983Z,28.55
2022-08-22T10:18:54.687Z,29.27
2022-08-22T10:21:34.109Z,29.54
2022-08-22T10:24:25.857Z,29.73
2022-08-22T10:26:56.174Z,29.99
2022-08-22T10:29:40.259Z,30.12
2022-08-22T10:32:21.164Z,30.16
2022-08-22T10:34:57.745Z,30.08
2022-08-22T10:37:32.599Z,30.10
2022-08-22T10:40:07.184Z,29.92
2022-08-22T10:42:41.735Z,29.71
2022-08-22T10:45:35.790Z,29.72
2022-08-22T10:48:42.818Z,29.69
2022-08-22T10:51:20.048Z,30.11
2022-08-22T10:54:07.804Z,30.25
2022-08-22T10:56:43.843Z,30.41
2022-08-22T10:59:26.082Z,30.87
2022-08-22T11:02:08.191Z,30.35
2022-08-22T11:04:43.929Z,30.61
2022-08-22T11:07:39.901Z,30.36
2022-08-22T11:10:18.990Z,30.51
2022-08-22T11:12:59.249Z,30.22
2022-08-22T11:16:06.740Z,30.31
2022-08-22T11:19:15.098Z,30.75
2022-08-22T11:21:59.352Z,30.61
2022-08-22T11:25:11.284Z,30.45
2022-08-22T11:27:47.886Z,30.89
2022-08-22T11:30:23.984Z,30.95
2022-08-22T11:33:47.097Z,30.87
2022-08-22T11:36:31.455Z,31.22
2022-08-22T11:39:21.889Z,31.28
2022-08-22T11:41:58.543Z,31.29
2022-08-22T11:44:31.365Z,31.11
2022-08-22T11:47:08.608Z,31.05
2022-08-22T11:49:50.933Z,30.69
2022-08-22T11:52:26.746Z,30.89
2022-08-22T11:55:19.120Z,31.03
2022-08-22T11:57:51.066Z,31.06
2022-08-22T12:00:26.527Z,30.86
2022-08-22T12:03:25.853Z,30.86
2022-08-22T12:06:00.283Z,31.32
2022-08-22T12:09:00.255Z,31.36
2022-08-22T12:11:35.532Z,31.63
2022-08-22T12:14:06.823Z,31.13
2022-08-22T12:16:40.694Z,30.16
2022-08-22T12:19:22.913Z,29.78
2022-08-22T12:22:21.583Z,30.55
2022-08-22T12:25:03.294Z,30.97
2022-08-22T12:27:57.642Z,30.55
2022-08-22T12:30:32.084Z,29.50
2022-08-22T12:33:22.061Z,30.12
2022-08-22T12:36:04.933Z,30.77
2022-08-22T12:38:45.669Z,30.70
2022-08-22T12:41:35.153Z,30.85
2022-08-22T12:44:18.699Z,30.41
2022-08-22T12:47:02.192Z,30.50
2022-08-22T12:49:49.825Z,30.38
2022-08-22T12:52:34.305Z,29.80
2022-08-22T12:55:33.868Z,29.82
2022-08-22T12:58:09.544Z,29.70
2022-08-22T13:00:40.296Z,29.56
2022-08-22T13:03:11.555Z,29.64
2022-08-22T13:05:41.257Z,29.64
2022-08-22T13:08:17.513Z,29.84
2022-08-22T13:10:47.688Z,30.15
2022-08-22T13:13:31.423Z,30.44
2022-08-22T13:16:08.017Z,30.76
2022-08-22T13:18:44.785Z,30.69
2022-08-22T13:21:15.917Z,30.53
2022-08-22T13:23:50.797Z,30.63
2022-08-22T13:26:31.846Z,30.78
2022-08-22T13:31:56.225Z,31.57
2022-08-22T13:34:43.717Z,31.47
2022-08-22T13:37:16.885Z,31.42
2022-08-22T13:39:49.354Z,31.49
2022-08-22T13:42:27.618Z,31.33
2022-08-22T13:45:03.014Z,31.38
2022-08-22T13:47:34.799Z,31.45
2022-08-22T13:50:10.118Z,31.48
2022-08-22T13:52:42.849Z,31.64
2022-08-22T13:55:19.996Z,31.98
2022-08-22T13:57:51.809Z,32.00
2022-08-22T14:01:01.411Z,31.78
2022-08-22T14:03:38.795Z,31.57
2022-08-22T14:06:35.252Z,31.79
2022-08-22T14:09:13.547Z,31.92
2022-08-22T14:11:46.916Z,32.08
2022-08-22T14:14:22.952Z,30.62
2022-08-22T14:16:55.466Z,31.06
2022-08-22T14:19:27.382Z,31.14
2022-08-22T14:21:59.551Z,30.86
2022-08-22T14:24:30.808Z,30.96
2022-08-22T14:27:05.487Z,31.32
2022-08-22T14:29:42.250Z,31.34
2022-08-22T14:32:35.059Z,30.99
2022-08-22T14:35:11.249Z,31.15
2022-08-22T14:37:53.502Z,31.22
2022-08-22T14:40:25.244Z,31.14
2022-08-22T14:42:58.406Z,31.16
2022-08-22T14:45:30.563Z,31.05
2022-08-22T14:48:29.233Z,31.08
2022-08-22T14:50:56.816Z,31.09
2022-08-22T14:53:27.636Z,31.03
2022-08-22T14:55:58.601Z,31.04
2022-08-22T14:58:30.081Z,31.06
2022-08-22T15:01:06.326Z,30.75
2022-08-22T15:03:38.798Z,30.62
2022-08-22T15:06:11.471Z,30.23
2022-08-22T15:08:42.374Z,30.36
2022-08-22T15:11:21.904Z,30.79
2022-08-22T15:14:00.180Z,30.77
2022-08-22T15:16:35.058Z,30.97
2022-08-22T15:19:06.758Z,30.84
2022-08-22T15:21:37.042Z,30.98
2022-08-22T15:24:14.671Z,30.92
2022-08-22T15:26:50.529Z,30.95
2022-08-22T15:29:22.737Z,30.69
2022-08-22T15:31:51.998Z,30.76
2022-08-22T15:34:32.685Z,30.61
2022-08-22T15:37:09.145Z,30.46
2022-08-22T15:40:02.955Z,30.36
2022-08-22T15:42:36.360Z,30.46
2022-08-22T15:45:06.281Z,30.48
2022-08-22T15:47:38.257Z,30.42
2022-08-22T15:50:09.980Z,30.46
2022-08-22T15:53:10.031Z,30.36
2022-08-22T15:55:37.967Z,30.23
2022-08-22T15:58:13.148Z,30.27
2022-08-22T16:00:45.828Z,29.81
2022-08-22T16:03:27.734Z,29.89
2022-08-22T16:05:58.098Z,29.49
2022-08-22T16:08:32.641Z,29.52
2022-08-22T16:11:24.138Z,29.39
2022-08-22T16:14:17.197Z,29.27
2022-08-22T16:17:27.773Z,29.27
2022-08-22T16:20:49.655Z,29.28
2022-08-22T16:23:16.683Z,29.25
2022-08-22T16:26:08.646Z,29.12
2022-08-22T16:29:00.196Z,29.02
2022-08-22T16:31:31.294Z,29.09
2022-08-22T16:34:18.834Z,29.13
2022-08-22T16:36:49.854Z,29.15
2022-08-22T16:39:32.537Z,29.09
2022-08-22T16:42:25.425Z,29.05
2022-08-22T16:44:56.543Z,28.99
2022-08-22T16:47:41.364Z,28.89
2022-08-22T16:50:24.622Z,28.67
2022-08-22T16:53:06.303Z,28.76
2022-08-22T16:55:48.551Z,28.70
2022-08-22T16:58:59.105Z,28.70
2022-08-22T17:01:42.997Z,28.80
2022-08-22T17:04:20.106Z,28.78
2022-08-22T17:07:05.229Z,28.73
2022-08-22T17:09:55.241Z,28.62
2022-08-22T17:12:34.509Z,28.51
2022-08-22T17:15:13.492Z,28.51
2022-08-22T17:17:54.662Z,28.52
2022-08-22T17:20:31.140Z,28.47
2022-08-22T17:23:10.547Z,28.41
2022-08-22T17:25:54.161Z,28.35
2022-08-22T17:28:34.727Z,28.27
2022-08-22T17:31:08.272Z,28.25
2022-08-22T17:33:55.899Z,28.23
2022-08-22T17:36:32.192Z,28.17
2022-08-22T17:39:18.294Z,28.12
2022-08-22T17:41:54.313Z,28.09
2022-08-22T17:44:28.506Z,28.00
2022-08-22T17:47:01.753Z,27.90
2022-08-22T17:49:48.846Z,27.83
2022-08-22T17:52:22.281Z,27.74
2022-08-22T17:54:55.292Z,27.64
2022-08-22T17:57:31.027Z,27.57
2022-08-22T18:00:02.048Z,27.52
2022-08-22T18:02:35.065Z,27.50
2022-08-22T18:05:08.464Z,27.44
2022-08-22T18:07:51.694Z,27.37
2022-08-22T18:10:27.832Z,27.29
2022-08-22T18:13:06.808Z,27.20
2022-08-22T18:15:42.268Z,27.08
2022-08-22T18:18:28.221Z,27.04
2022-08-22T18:21:03.037Z,26.92
2022-08-22T18:23:39.283Z,26.83
2022-08-22T18:26:18.169Z,26.72
2022-08-22T18:28:54.263Z,26.57
2022-08-22T18:31:38.316Z,26.43
2022-08-22T18:34:13.591Z,26.23
2022-08-22T18:36:53.241Z,26.03
2022-08-22T18:39:23.650Z,25.92
2022-08-22T18:41:57.218Z,25.80
2022-08-22T18:44:29.143Z,25.69
2022-08-22T18:46:58.917Z,25.62
2022-08-22T18:49:46.410Z,25.44
2022-08-22T18:52:21.194Z,25.38
2022-08-22T18:55:13.172Z,25.29
2022-08-22T18:58:02.880Z,25.16
2022-08-22T19:00:54.044Z,25.00
2022-08-22T19:03:50.267Z,24.87
2022-08-22T19:06:41.247Z,24.70
2022-08-22T19:09:49.700Z,24.52
2022-08-22T19:12:35.615Z,24.31
2022-08-22T19:15:25.818Z,24.14
2022-08-22T19:18:23.572Z,24.14
2022-08-22T19:21:33.667Z,24.02
2022-08-22T19:24:01.643Z,23.92
2022-08-22T19:26:35.393Z,23.91
2022-08-22T19:29:10.504Z,23.81
2022-08-22T19:31:48.314Z,23.62
2022-08-22T19:34:39.306Z,23.43
2022-08-22T19:37:32.300Z,23.31
2022-08-22T19:40:02.249Z,23.22
2022-08-22T19:42:38.389Z,23.27
2022-08-22T19:45:19.950Z,23.30
2022-08-22T19:48:05.546Z,23.18
2022-08-22T19:50:36.795Z,23.03
2022-08-22T19:53:18.434Z,22.90
2022-08-22T19:56:06.309Z,22.84
2022-08-22T19:58:47.485Z,22.76
2022-08-22T20:01:45.928Z,22.76
2022-08-22T20:04:47.256Z,22.80
2022-08-22T20:07:29.773Z,22.78
2022-08-22T20:10:08.909Z,22.81
2022-08-22T20:12:46.912Z,22.78
2022-08-22T20:15:19.443Z,22.72
2022-08-22T20:18:11.553Z,22.71
2022-08-22T20:20:52.112Z,22.68
2022-08-22T20:23:26.662Z,22.68
2022-08-22T20:25:55.972Z,22.72
2022-08-22T20:28:40.214Z,22.75
2022-08-22T20:31:12.375Z,22.77
2022-08-22T20:33:42.519Z,22.76
2022-08-22T20:36:13.801Z,22.75
2022-08-22T20:39:01.807Z,22.69
2022-08-22T20:41:33.579Z,22.61
2022-08-22T20:44:06.339Z,22.55
2022-08-22T20:46:46.019Z,22.46
2022-08-22T20:49:18.502Z,22.37
2022-08-22T20:51:52.065Z,22.30
2022-08-22T20:54:24.143Z,22.22
2022-08-22T20:56:53.975Z,22.18
2022-08-22T20:59:25.853Z,22.09
2022-08-22T21:01:57.872Z,21.98
2022-08-22T21:04:31.346Z,21.96
2022-08-22T21:07:00.009Z,21.93
2022-08-22T21:09:47.580Z,21.90
2022-08-22T21:12:14.938Z,21.88
2022-08-22T21:14:46.936Z,21.88
2022-08-22T21:17:19.551Z,21.88
2022-08-22T21:19:46.707Z,21.85
2022-08-22T21:22:14.447Z,21.84
2022-08-22T21:24:42.885Z,21.76
2022-08-22T21:27:14.411Z,21.61
2022-08-22T21:29:46.207Z,21.47
2022-08-22T21:32:25.569Z,21.36
2022-08-22T21:34:53.426Z,21.27
2022-08-22T21:37:27.376Z,21.19
2022-08-22T21:40:02.000Z,21.12
2022-08-22T21:42:33.193Z,21.06
2022-08-22T21:45:02.680Z,20.98
2022-08-22T21:47:32.285Z,20.87
2022-08-22T21:50:10.885Z,20.76
2022-08-22T21:52:39.891Z,20.71
2022-08-22T21:55:26.255Z,20.68
2022-08-22T21:58:04.974Z,20.66
2022-08-22T22:00:49.738Z,20.68
2022-08-22T22:03:21.071Z,20.63
2022-08-22T22:05:49.408Z,20.56
2022-08-22T22:08:17.135Z,20.44
2022-08-22T22:10:47.568Z,20.35
2022-08-22T22:13:14.750Z,20.30
2022-08-22T22:15:44.240Z,20.26
2022-08-22T22:18:11.953Z,20.21
2022-08-22T22:20:39.298Z,20.18
2022-08-22T22:23:06.194Z,20.17
2022-08-22T22:25:40.786Z,20.17
2022-08-22T22:28:12.824Z,20.11
2022-08-22T22:30:40.168Z,20.04
2022-08-22T22:33:06.993Z,19.95
2022-08-22T22:35:34.443Z,19.87
2022-08-22T22:38:02.126Z,19.83
2022-08-22T22:40:29.258Z,19.83
2022-08-22T22:42:56.255Z,19.87
2022-08-22T22:45:24.481Z,19.94
2022-08-22T22:47:51.450Z,20.01
2022-08-22T22:50:18.560Z,19.97
2022-08-22T22:52:45.415Z,19.99
2022-08-22T22:55:12.809Z,20.03
2022-08-22T22:57:55.602Z,20.04
2022-08-22T23:00:30.898Z,19.96
2022-08-22T23:02:59.652Z,19.90
2022-08-22T23:05:26.592Z,19.88
2022-08-22T23:07:53.433Z,19.84
2022-08-22T23:10:22.222Z,19.78
2022-08-22T23:12:49.596Z,19.68
2022-08-22T23:15:16.772Z,19.62
2022-08-22T23:17:45.418Z,19.54
2022-08-22T23:20:12.298Z,19.48
2022-08-22T23:22:41.532Z,19.40
2022-08-22T23:25:09.133Z,19.34
2022-08-22T23:27:36.627Z,19.26
2022-08-22T23:30:05.570Z,19.18
2022-08-22T23:32:32.911Z,19.14
2022-08-22T23:35:01.155Z,19.10
2022-08-22T23:37:27.988Z,19.04
2022-08-22T23:39:54.964Z,18.94
2022-08-22T23:42:21.907Z,18.61
2022-08-22T23:44:48.778Z,18.68
2022-08-22T23:47:15.962Z,18.68
2022-08-22T23:49:43.934Z,18.90
2022-08-22T23:52:13.272Z,18.94
2022-08-22T23:54:40.284Z,18.88
2022-08-22T23:57:11.590Z,18.72
2022-08-22T23:59:48.585Z,18.68
